createdAt,value
2023-12-29T00:01:57.012Z,97099.75
2023-12-29T00:04:42.077Z,97096.22
2023-12-29T00:07:27.316Z,97084.13
2023-12-29T00:10:12.620Z,97075.09
2023-12-29T00:12:57.642Z,97079.22
2023-12-29T00:15:42.950Z,97076.44
2023-12-29T00:18:27.911Z,97076.75
2023-12-29T00:21:13.226Z,97085.81
2023-12-29T00:23:58.387Z,97094.41
2023-12-29T00:26:43.535Z,97094.13
2023-12-29T00:29:28.511Z,97093.34
2023-12-29T00:32:13.954Z,97091.06
2023-12-29T00:34:59.223Z,97073.81
2023-12-29T00:37:44.389Z,97074.66
2023-12-29T00:40:29.311Z,97071.16
2023-12-29T00:43:14.551Z,97068.81
2023-12-29T00:45:59.680Z,97079.56
2023-12-29T00:48:44.994Z,97081.63
2023-12-29T00:51:30.117Z,97086.22
2023-12-29T00:54:15.093Z,97077.13
2023-12-29T00:57:00.248Z,97076.91
2023-12-29T00:59:45.400Z,97070.41
2023-12-29T01:02:30.526Z,97077.53
2023-12-29T01:05:15.812Z,97067.88
2023-12-29T01:08:01.556Z,97064.13
2023-12-29T01:10:46.806Z,97062.03
2023-12-29T01:13:31.910Z,97063.91
2023-12-29T01:16:16.868Z,97064.38
2023-12-29T01:19:02.059Z,97066.84
2023-12-29T01:21:47.358Z,97070.34
2023-12-29T01:24:39.902Z,97072.00
2023-12-29T01:27:28.294Z,97078.50
2023-12-29T01:30:13.627Z,97075.28
2023-12-29T01:32:58.848Z,97073.88
2023-12-29T01:35:43.780Z,97075.00
2023-12-29T01:38:28.742Z,97064.00
2023-12-29T01:41:13.907Z,97073.28
2023-12-29T01:43:59.361Z,97077.75
2023-12-29T01:46:44.358Z,97079.97
2023-12-29T01:49:29.580Z,97086.91
2023-12-29T01:52:14.675Z,97085.69
2023-12-29T01:54:59.711Z,97092.44
2023-12-29T01:57:45.054Z,97095.53
2023-12-29T02:00:30.548Z,97107.00
2023-12-29T02:03:15.870Z,97100.34
2023-12-29T02:06:00.792Z,97097.03
2023-12-29T02:08:45.946Z,97092.44
2023-12-29T02:11:31.063Z,97084.50
2023-12-29T02:14:16.049Z,97095.50
2023-12-29T02:17:01.448Z,97099.38
2023-12-29T02:19:46.878Z,97093.50
2023-12-29T02:22:32.156Z,97100.84
2023-12-29T02:25:17.062Z,97093.16
2023-12-29T02:28:02.446Z,97099.41
2023-12-29T02:30:47.864Z,97100.75
2023-12-29T02:33:32.937Z,97093.47
2023-12-29T02:36:18.939Z,97091.13
2023-12-29T02:39:04.061Z,97096.06
2023-12-29T02:41:49.137Z,97101.75
2023-12-29T02:44:34.088Z,97096.63
2023-12-29T02:47:19.322Z,97093.75
2023-12-29T02:50:04.786Z,97096.72
2023-12-29T02:52:50.027Z,97090.13
2023-12-29T02:55:35.110Z,97082.72
2023-12-29T02:58:20.147Z,97072.22
2023-12-29T03:01:05.643Z,97073.44
2023-12-29T03:03:50.909Z,97070.19
2023-12-29T03:06:36.091Z,97075.03
2023-12-29T03:09:21.247Z,97075.47
2023-12-29T03:12:06.408Z,97077.34
2023-12-29T03:14:51.695Z,97065.31
2023-12-29T03:17:36.776Z,97071.03
2023-12-29T03:20:21.863Z,97076.31
2023-12-29T03:23:06.780Z,97075.34
2023-12-29T03:25:52.607Z,97066.34
2023-12-29T03:28:37.844Z,97063.34
2023-12-29T03:31:23.372Z,97065.75
2023-12-29T03:34:08.504Z,97054.53
2023-12-29T03:36:53.680Z,97055.84
2023-12-29T03:39:38.911Z,97042.50
2023-12-29T03:42:24.123Z,97046.81
2023-12-29T03:45:09.134Z,97045.53
2023-12-29T03:47:54.725Z,97051.13
2023-12-29T03:50:39.672Z,97058.38
2023-12-29T03:53:24.850Z,97050.59
2023-12-29T03:56:09.921Z,97047.19
2023-12-29T03:58:55.187Z,97052.63
2023-12-29T04:01:40.134Z,97049.41
2023-12-29T04:04:25.141Z,97048.78
2023-12-29T04:07:10.086Z,97057.00
2023-12-29T04:09:55.188Z,97059.00
2023-12-29T04:12:40.506Z,97056.03
2023-12-29T04:15:25.567Z,97064.66
2023-12-29T04:18:10.552Z,97063.19
2023-12-29T04:20:55.846Z,97058.34
2023-12-29T04:23:41.533Z,97059.53
2023-12-29T04:26:26.490Z,97063.34
2023-12-29T04:29:11.286Z,97067.72
2023-12-29T04:31:56.551Z,97074.78
2023-12-29T04:34:41.644Z,97072.25
2023-12-29T04:37:26.493Z,97079.09
2023-12-29T04:40:11.750Z,97086.19
2023-12-29T04:42:57.128Z,97079.31
2023-12-29T04:45:42.478Z,97092.28
2023-12-29T04:48:27.506Z,97099.09
2023-12-29T04:51:12.668Z,97096.75
2023-12-29T04:53:57.685Z,97101.50
2023-12-29T04:56:42.997Z,97102.81
2023-12-29T04:59:27.952Z,97107.59
2023-12-29T05:02:13.192Z,97102.41
2023-12-29T05:04:58.434Z,97109.63
2023-12-29T05:07:43.397Z,97095.72
2023-12-29T05:10:28.763Z,97112.38
2023-12-29T05:13:13.849Z,97106.88
2023-12-29T05:15:58.815Z,97093.03
2023-12-29T05:18:43.807Z,97099.47
2023-12-29T05:21:29.260Z,97098.53
2023-12-29T05:24:14.459Z,97100.41
2023-12-29T05:26:59.331Z,97097.34
2023-12-29T05:29:44.577Z,97096.75
2023-12-29T05:32:29.833Z,97106.19
2023-12-29T05:35:14.758Z,97101.16
2023-12-29T05:38:00.122Z,97103.41
2023-12-29T05:40:45.656Z,97108.75
2023-12-29T05:43:30.992Z,97100.16
2023-12-29T05:46:17.536Z,97095.06
2023-12-29T05:49:02.750Z,97107.63
2023-12-29T05:51:48.957Z,97099.31
2023-12-29T05:54:35.189Z,97107.72
2023-12-29T05:57:20.486Z,97103.97
2023-12-29T06:00:05.552Z,97112.84
2023-12-29T06:02:50.884Z,97113.38
2023-12-29T06:05:35.745Z,97106.28
2023-12-29T06:08:20.824Z,97100.78
2023-12-29T06:11:06.074Z,97106.22
2023-12-29T06:13:51.036Z,97102.81
2023-12-29T06:16:36.004Z,97103.25
2023-12-29T06:19:20.946Z,97100.16
2023-12-29T06:22:06.270Z,97101.44
2023-12-29T06:24:52.562Z,97101.91
2023-12-29T06:27:37.729Z,97102.09
2023-12-29T06:30:23.037Z,97103.94
2023-12-29T06:33:11.119Z,97097.63
2023-12-29T06:35:56.240Z,97093.88
2023-12-29T06:38:41.318Z,97104.41
2023-12-29T06:41:26.453Z,97106.81
2023-12-29T06:44:11.651Z,97106.47
2023-12-29T06:46:56.827Z,97098.78
2023-12-29T06:49:42.172Z,97093.97
2023-12-29T06:52:27.237Z,97081.22
2023-12-29T06:55:12.506Z,97094.41
2023-12-29T06:57:57.750Z,97093.03
2023-12-29T07:00:44.486Z,97097.19
2023-12-29T07:03:29.735Z,97107.44
2023-12-29T07:06:14.864Z,97097.44
2023-12-29T07:08:59.903Z,97098.56
2023-12-29T07:11:45.068Z,97095.09
2023-12-29T07:14:30.270Z,97106.03
2023-12-29T07:17:15.299Z,97100.50
2023-12-29T07:20:00.340Z,97117.44
2023-12-29T07:22:45.522Z,97113.50
2023-12-29T07:25:30.601Z,97119.09
2023-12-29T07:28:15.868Z,97123.94
2023-12-29T07:31:01.169Z,97125.91
2023-12-29T07:33:46.545Z,97132.34
2023-12-29T07:36:31.561Z,97134.41
2023-12-29T07:39:16.687Z,97130.78
2023-12-29T07:42:03.980Z,97136.78
2023-12-29T07:44:48.785Z,97138.19
2023-12-29T07:47:46.442Z,97140.53
2023-12-29T07:50:44.083Z,97138.03
2023-12-29T07:53:32.140Z,97145.69
2023-12-29T07:56:17.346Z,97143.94
2023-12-29T07:59:02.585Z,97150.13
2023-12-29T08:01:47.940Z,97149.03
2023-12-29T08:04:33.056Z,97147.91
2023-12-29T08:07:18.357Z,97145.53
2023-12-29T08:10:03.538Z,97154.06
2023-12-29T08:12:48.685Z,97134.97
2023-12-29T08:15:33.926Z,97132.41
2023-12-29T08:18:19.198Z,97151.59
2023-12-29T08:21:04.184Z,97153.31
2023-12-29T08:23:49.348Z,97143.44
2023-12-29T08:26:34.415Z,97143.56
2023-12-29T08:29:19.442Z,97132.47
2023-12-29T08:32:04.801Z,97132.47
2023-12-29T08:34:50.030Z,97134.66
2023-12-29T08:37:35.002Z,97137.97
2023-12-29T08:40:19.966Z,97139.44
2023-12-29T08:43:04.894Z,97150.34
2023-12-29T08:45:50.159Z,97155.56
2023-12-29T08:48:35.368Z,97142.44
2023-12-29T08:51:20.496Z,97137.34
2023-12-29T08:54:05.589Z,97143.97
2023-12-29T08:56:50.681Z,97154.69
2023-12-29T08:59:35.843Z,97153.97
2023-12-29T09:02:20.978Z,97154.09
2023-12-29T09:05:05.842Z,97149.66
2023-12-29T09:07:50.889Z,97156.53
2023-12-29T09:10:35.976Z,97153.44
2023-12-29T09:13:21.236Z,97170.34
2023-12-29T09:16:06.730Z,97155.97
2023-12-29T09:18:51.726Z,97157.38
2023-12-29T09:21:36.849Z,97155.75
2023-12-29T09:24:22.044Z,97157.16
2023-12-29T09:27:07.165Z,97149.53
2023-12-29T09:29:52.337Z,97159.09
2023-12-29T09:32:37.531Z,97179.13
2023-12-29T09:35:22.703Z,97180.16
2023-12-29T09:38:08.020Z,97180.13
2023-12-29T09:40:53.168Z,97174.38
2023-12-29T09:43:38.045Z,97169.34
2023-12-29T09:46:23.348Z,97181.69
2023-12-29T09:49:08.462Z,97183.56
2023-12-29T09:51:53.498Z,97181.63
2023-12-29T09:54:38.765Z,97180.31
2023-12-29T09:57:23.916Z,97181.91
2023-12-29T10:00:09.129Z,97191.41
2023-12-29T10:02:54.483Z,97179.34
2023-12-29T10:05:41.783Z,97173.09
2023-12-29T10:08:26.937Z,97177.50
2023-12-29T10:11:11.967Z,97177.81
2023-12-29T10:13:56.967Z,97184.59
2023-12-29T10:16:42.273Z,97176.16
2023-12-29T10:19:27.166Z,97171.53
2023-12-29T10:22:12.376Z,97175.50
2023-12-29T10:24:57.524Z,97167.75
2023-12-29T10:27:42.746Z,97156.44
2023-12-29T10:30:31.866Z,97153.72
2023-12-29T10:33:20.764Z,97155.13
2023-12-29T10:36:05.584Z,97140.81
2023-12-29T10:38:50.798Z,97134.09
2023-12-29T10:41:35.962Z,97131.03
2023-12-29T10:44:21.276Z,97136.38
2023-12-29T10:47:06.204Z,97143.94
2023-12-29T10:49:51.466Z,97130.59
2023-12-29T10:52:36.543Z,97122.91
2023-12-29T10:55:21.786Z,97123.38
2023-12-29T10:58:07.142Z,97115.59
2023-12-29T11:00:52.770Z,97121.13
2023-12-29T11:03:40.498Z,97121.34
2023-12-29T11:06:25.477Z,97106.63
2023-12-29T11:09:10.562Z,97104.41
2023-12-29T11:11:55.607Z,97110.00
2023-12-29T11:14:40.793Z,97106.44
2023-12-29T11:17:26.124Z,97096.47
2023-12-29T11:20:11.168Z,97091.75
2023-12-29T11:22:56.288Z,97080.75
2023-12-29T11:25:41.371Z,97079.09
2023-12-29T11:28:26.451Z,97078.28
2023-12-29T11:31:11.660Z,97078.59
2023-12-29T11:33:56.747Z,97076.63
2023-12-29T11:36:42.037Z,97066.22
2023-12-29T11:39:27.097Z,97054.59
2023-12-29T11:42:12.255Z,97052.91
2023-12-29T11:44:57.325Z,97037.16
2023-12-29T11:47:42.524Z,97041.72
2023-12-29T11:50:27.865Z,97049.31
2023-12-29T11:53:12.753Z,97037.13
2023-12-29T11:55:57.755Z,97042.19
2023-12-29T11:58:42.817Z,97045.06
2023-12-29T12:01:28.069Z,97042.31
2023-12-29T12:04:13.164Z,97030.09
2023-12-29T12:06:58.436Z,97034.75
2023-12-29T12:09:45.726Z,97024.03
2023-12-29T12:12:31.725Z,97020.69
2023-12-29T12:15:16.589Z,97018.28
2023-12-29T12:18:01.909Z,97019.69
2023-12-29T12:20:46.943Z,97013.47
2023-12-29T12:23:32.233Z,97011.47
2023-12-29T12:26:17.122Z,97004.50
2023-12-29T12:29:02.223Z,96993.03
2023-12-29T12:31:47.410Z,96989.81
2023-12-29T12:34:32.753Z,96987.88
2023-12-29T12:37:17.960Z,96985.78
2023-12-29T12:40:03.166Z,96983.03
2023-12-29T12:42:48.035Z,96980.31
2023-12-29T12:45:33.097Z,96984.56
2023-12-29T12:48:18.378Z,96978.81
2023-12-29T12:51:03.611Z,96970.72
2023-12-29T12:53:48.359Z,96974.19
2023-12-29T12:56:33.652Z,96960.50
2023-12-29T12:59:18.454Z,96954.81
2023-12-29T13:02:03.836Z,96949.81
2023-12-29T13:04:49.371Z,96953.53
2023-12-29T13:07:34.648Z,96954.41
2023-12-29T13:10:19.652Z,96958.44
2023-12-29T13:13:05.076Z,96951.53
2023-12-29T13:15:50.445Z,96949.25
2023-12-29T13:18:35.346Z,96945.88
2023-12-29T13:21:20.368Z,96939.03
2023-12-29T13:24:05.417Z,96944.31
2023-12-29T13:26:50.558Z,96935.19
2023-12-29T13:29:35.626Z,96936.59
2023-12-29T13:32:20.898Z,96936.78
2023-12-29T13:35:06.250Z,96935.53
2023-12-29T13:37:51.454Z,96935.06
2023-12-29T13:40:36.487Z,96933.34
2023-12-29T13:43:21.369Z,96937.78
2023-12-29T13:46:06.579Z,96931.16
2023-12-29T13:48:51.728Z,96935.34
2023-12-29T13:51:36.926Z,96937.75
2023-12-29T13:54:22.093Z,96936.00
2023-12-29T13:57:07.165Z,96935.22
2023-12-29T13:59:52.438Z,96929.09
2023-12-29T14:02:37.542Z,96932.41
2023-12-29T14:05:22.848Z,96935.66
2023-12-29T14:08:07.881Z,96929.34
2023-12-29T14:10:53.121Z,96921.53
2023-12-29T14:13:38.033Z,96925.16
2023-12-29T14:16:23.060Z,96921.75
2023-12-29T14:19:08.435Z,96929.25
2023-12-29T14:21:53.531Z,96935.44
2023-12-29T14:24:38.712Z,96936.16
2023-12-29T14:27:23.884Z,96933.28
2023-12-29T14:30:09.077Z,96929.44
2023-12-29T14:32:54.182Z,96936.41
2023-12-29T14:35:39.282Z,96932.25
2023-12-29T14:38:24.480Z,96941.00
2023-12-29T14:41:09.611Z,96944.47
2023-12-29T14:43:54.812Z,96937.13
2023-12-29T14:46:39.941Z,96944.00
2023-12-29T14:49:24.986Z,96950.41
2023-12-29T14:52:10.081Z,96945.66
2023-12-29T14:54:55.200Z,96949.91
2023-12-29T14:57:40.410Z,96947.06
2023-12-29T15:00:25.340Z,96936.59
2023-12-29T15:03:10.340Z,96935.97
2023-12-29T15:05:56.579Z,96941.47
2023-12-29T15:08:42.397Z,96939.22
2023-12-29T15:11:27.251Z,96938.63
2023-12-29T15:14:12.418Z,96929.97
2023-12-29T15:16:57.738Z,96926.34
2023-12-29T15:19:42.600Z,96938.19
2023-12-29T15:22:27.879Z,96941.66
2023-12-29T15:25:13.065Z,96935.75
2023-12-29T15:27:58.314Z,96943.00
2023-12-29T15:30:43.358Z,96945.53
2023-12-29T15:33:28.607Z,96936.25
2023-12-29T15:36:13.756Z,96937.97
2023-12-29T15:38:58.697Z,96931.00
2023-12-29T15:41:43.956Z,96924.88
2023-12-29T15:44:29.103Z,96923.06
2023-12-29T15:47:14.329Z,96909.41
2023-12-29T15:49:59.581Z,96907.97
2023-12-29T15:52:44.633Z,96904.28
2023-12-29T15:55:29.782Z,96898.25
2023-12-29T15:58:14.982Z,96901.78
2023-12-29T16:01:00.399Z,96908.38
2023-12-29T16:03:45.530Z,96910.53
2023-12-29T16:06:30.836Z,96908.28
2023-12-29T16:09:15.839Z,96907.25
2023-12-29T16:12:00.989Z,96908.69
2023-12-29T16:14:46.279Z,96904.81
2023-12-29T16:17:31.237Z,96906.41
2023-12-29T16:20:16.599Z,96905.28
2023-12-29T16:23:01.570Z,96916.09
2023-12-29T16:25:46.707Z,96917.84
2023-12-29T16:28:32.927Z,96918.34
2023-12-29T16:31:18.016Z,96922.03
2023-12-29T16:34:03.229Z,96915.22
2023-12-29T16:36:48.373Z,96913.34
2023-12-29T16:39:33.543Z,96909.50
2023-12-29T16:42:18.692Z,96902.19
2023-12-29T16:45:06.948Z,96892.81
2023-12-29T16:47:52.156Z,96906.31
2023-12-29T16:50:37.358Z,96904.28
2023-12-29T16:53:22.477Z,96909.75
2023-12-29T16:56:07.668Z,96903.56
2023-12-29T16:58:52.816Z,96892.88
2023-12-29T17:01:38.470Z,96891.47
2023-12-29T17:04:26.281Z,96895.09
2023-12-29T17:07:11.257Z,96898.47
2023-12-29T17:09:56.536Z,96905.13
2023-12-29T17:12:42.053Z,96900.72
2023-12-29T17:15:26.990Z,96908.97
2023-12-29T17:18:12.301Z,96906.09
2023-12-29T17:20:57.534Z,96912.69
2023-12-29T17:23:43.839Z,96917.38
2023-12-29T17:26:33.188Z,96908.53
2023-12-29T17:29:17.992Z,96902.84
2023-12-29T17:32:05.499Z,96907.38
2023-12-29T17:34:55.463Z,96912.84
2023-12-29T17:37:41.514Z,96922.41
2023-12-29T17:40:26.999Z,96916.53
2023-12-29T17:43:12.358Z,96918.75
2023-12-29T17:45:57.211Z,96912.06
2023-12-29T17:48:42.475Z,96906.19
2023-12-29T17:51:27.767Z,96917.09
2023-12-29T17:54:15.406Z,96910.53
2023-12-29T17:57:00.787Z,96921.16
2023-12-29T17:59:45.832Z,96927.84
2023-12-29T18:05:34.241Z,96918.75
2023-12-29T18:11:18.321Z,96925.72
2023-12-29T18:14:06.035Z,96939.53
2023-12-29T18:16:51.015Z,96945.25
2023-12-29T18:19:36.074Z,96952.44
2023-12-29T18:22:21.641Z,96957.88
2023-12-29T18:25:07.078Z,96939.72
2023-12-29T18:27:55.067Z,96941.97
2023-12-29T18:30:40.233Z,96942.94
2023-12-29T18:33:27.587Z,96952.19
2023-12-29T18:36:13.583Z,96954.06
2023-12-29T18:38:58.484Z,96953.78
2023-12-29T18:41:47.207Z,96951.38
2023-12-29T18:44:32.759Z,96952.97
2023-12-29T18:47:25.935Z,96953.94
2023-12-29T18:50:11.404Z,96947.38
2023-12-29T18:52:56.577Z,96952.00
2023-12-29T18:55:44.215Z,96951.56
2023-12-29T18:58:29.230Z,96956.88
2023-12-29T19:01:14.415Z,96954.84
2023-12-29T19:03:59.662Z,96960.78
2023-12-29T19:06:44.831Z,96969.31
2023-12-29T19:09:29.996Z,96975.03
2023-12-29T19:12:15.373Z,96982.69
2023-12-29T19:15:00.445Z,96979.75
2023-12-29T19:17:45.695Z,96977.09
2023-12-29T19:20:31.038Z,96962.63
2023-12-29T19:23:15.882Z,96972.72
2023-12-29T19:26:00.902Z,96977.06
2023-12-29T19:28:46.097Z,96970.91
2023-12-29T19:31:31.206Z,96971.69
2023-12-29T19:34:16.324Z,96963.31
2023-12-29T19:37:01.495Z,96972.06
2023-12-29T19:39:47.889Z,96979.91
2023-12-29T19:42:33.199Z,96987.25
2023-12-29T19:45:21.491Z,96992.53
2023-12-29T19:48:09.242Z,96997.78
2023-12-29T19:50:54.200Z,96994.25
2023-12-29T19:53:39.398Z,96994.88
2023-12-29T19:56:24.740Z,97003.50
2023-12-29T19:59:09.762Z,97009.41
2023-12-29T20:01:54.870Z,97002.50
2023-12-29T20:04:40.030Z,97007.66
2023-12-29T20:07:25.421Z,97006.41
2023-12-29T20:10:10.708Z,96994.00
2023-12-29T20:12:56.095Z,96991.81
2023-12-29T20:15:41.212Z,96989.28
2023-12-29T20:18:26.411Z,96984.59
2023-12-29T20:21:11.774Z,96986.28
2023-12-29T20:23:56.806Z,96992.34
2023-12-29T20:26:42.021Z,96985.56
2023-12-29T20:29:27.056Z,96989.97
2023-12-29T20:32:12.258Z,96994.72
2023-12-29T20:34:57.382Z,96998.06
2023-12-29T20:37:42.189Z,97002.78
2023-12-29T20:40:27.543Z,96994.38
2023-12-29T20:43:14.147Z,97000.63
2023-12-29T20:45:59.347Z,96997.56
2023-12-29T20:48:44.271Z,96993.75
2023-12-29T20:51:30.060Z,96993.78
2023-12-29T20:54:15.097Z,97003.03
2023-12-29T20:57:00.191Z,97005.63
2023-12-29T20:59:45.249Z,97001.94
2023-12-29T21:02:30.314Z,97000.41
2023-12-29T21:05:17.926Z,97000.94
2023-12-29T21:08:04.257Z,96995.19
2023-12-29T21:10:49.266Z,97003.47
2023-12-29T21:13:34.593Z,97001.41
2023-12-29T21:16:20.027Z,96998.78
2023-12-29T21:19:05.450Z,96998.41
2023-12-29T21:21:50.587Z,96986.97
2023-12-29T21:24:37.768Z,96988.47
2023-12-29T21:27:22.879Z,96995.91
2023-12-29T21:30:08.122Z,96986.34
2023-12-29T21:32:53.967Z,96999.16
2023-12-29T21:35:39.228Z,96997.50
2023-12-29T21:38:24.302Z,97009.63
2023-12-29T21:41:09.506Z,97000.28
2023-12-29T21:46:53.471Z,96992.09
2023-12-29T21:49:38.422Z,96999.00
2023-12-29T21:52:23.719Z,97001.78
2023-12-29T21:55:08.635Z,96996.22
2023-12-29T21:57:54.271Z,97003.44
2023-12-29T22:00:39.487Z,97000.25
2023-12-29T22:03:24.930Z,97002.53
2023-12-29T22:06:09.890Z,97004.13
2023-12-29T22:08:55.170Z,97002.31
2023-12-29T22:11:39.904Z,97002.19
2023-12-29T22:14:25.202Z,96997.81
2023-12-29T22:17:10.290Z,96995.50
2023-12-29T22:19:55.652Z,97002.38
2023-12-29T22:22:40.624Z,97004.59
2023-12-29T22:25:27.436Z,97010.34
2023-12-29T22:28:13.015Z,97009.09
2023-12-29T22:30:58.318Z,97010.22
2023-12-29T22:33:43.743Z,97010.69
2023-12-29T22:36:28.862Z,97006.91
2023-12-29T22:39:13.877Z,97004.59
2023-12-29T22:41:59.088Z,96999.31
2023-12-29T22:44:44.665Z,96986.53
2023-12-29T22:47:29.866Z,96993.22
2023-12-29T22:50:14.950Z,96994.44
2023-12-29T22:53:00.501Z,96987.19
2023-12-29T22:55:46.142Z,96995.63
2023-12-29T22:58:31.179Z,96991.84
2023-12-29T23:01:16.408Z,96992.09
2023-12-29T23:04:01.465Z,96987.94
2023-12-29T23:06:46.589Z,96989.91
2023-12-29T23:09:31.649Z,96984.56
2023-12-29T23:12:16.803Z,96986.22
2023-12-29T23:15:01.792Z,96982.09
2023-12-29T23:17:46.998Z,96998.63
2023-12-29T23:20:32.090Z,96990.00
2023-12-29T23:23:17.419Z,96990.22
2023-12-29T23:26:03.625Z,96989.22
2023-12-29T23:28:50.262Z,96995.06
2023-12-29T23:31:35.260Z,96988.78
2023-12-29T23:34:20.450Z,96992.53
2023-12-29T23:37:08.673Z,96997.81
2023-12-29T23:39:53.807Z,96985.66
2023-12-29T23:42:38.847Z,96975.41
2023-12-29T23:45:25.390Z,96983.47
2023-12-29T23:48:10.902Z,96985.75
2023-12-29T23:50:55.988Z,96984.84
2023-12-29T23:53:45.451Z,96981.34
2023-12-29T23:56:36.888Z,96985.31
2023-12-29T23:59:24.560Z,96984.69
